Weather History for Waskish, MN

Change the Weather History Date:

Saturday, November 10, 2012

  Actual Average (KBDE) Record (KBDE)
Temperature  
Mean Temperature 32 °F -  
Max Temperature 35 °F 35 °F 60 °F (1954)
Min Temperature 28 °F 20 °F -8 °F (1933)
Degree Days  
Heating Degree Days 34    
Moisture  
Dew Point 30 °F    
Average Humidity 94    
Maximum Humidity 100    
Minimum Humidity 80    
Precipitation  
Precipitation 0.01 in - - ()
Sea Level Pressure  
Sea Level Pressure 29.73 in    
Wind  
Wind Speed 12 mph (ENE)    
Max Wind Speed 17 mph    
Max Gust Speed 25 mph    
Visibility 6 miles    
Events Snow    
Averages and records for this station are not official NWS values.
T = Trace of Precipitation, MM = Missing Value Source: NWS Daily Summary

Daily Weather History Graph

Daily Weather History Graph

Search for Another Location

Airport:

Trip Planner

Search our weather history database for the weather conditions in past years. The results will help you decide how hot, cold, wet, or windy it might be!

Date:

Astronomy

Nov. 10, 2012 Rise Set
Actual Time 7:18 AM CST 4:45 PM CST
Civil Twilight 6:44 AM CST 5:18 PM CST
Nautical Twilight 6:07 AM CST 5:56 PM CST
Astronomical Twilight 5:30 AM CST 6:32 PM CST
Moon 3:08 AM CST (11/10) 2:45 PM CST (11/10)
Length of Visible Light 10h 34m
Length of Day
9h 27m
Waning Crescent, 14% of the Moon is Illuminated
Nov 10
Waning Crescent
Nov 13
New
Nov 20
First Quarter
Nov 28
Full
Dec 6
Last Quarter

Hourly Weather History & Observations

Time (CST) Temp. Windchill Dew Point Humidity Pressure Visibility Wind Dir Wind Speed Gust Speed Precip Events Conditions
12:11 AM 28.4 °F 17.5 °F 24.8 °F 86% 30.04 in 10.0 mi ENE 13.8 mph 23.0 mph N/A   Overcast
12:30 AM 28.4 °F 17.5 °F 24.8 °F 86% 30.03 in 10.0 mi ENE 13.8 mph 21.9 mph N/A   Overcast
12:50 AM 28.4 °F 17.0 °F 24.8 °F 86% 30.03 in 10.0 mi ENE 15.0 mph 20.7 mph N/A   Overcast
1:11 AM 28.4 °F 17.5 °F 24.8 °F 86% 30.01 in 10.0 mi ENE 13.8 mph 19.6 mph N/A   Overcast
1:30 AM 28.4 °F 17.0 °F 24.8 °F 86% 30.01 in 10.0 mi ENE 15.0 mph 21.9 mph N/A   Overcast
1:50 AM 28.4 °F 17.5 °F 24.8 °F 86% 29.99 in 10.0 mi ENE 13.8 mph 24.2 mph N/A   Overcast
2:11 AM 28.4 °F 18.5 °F 24.8 °F 86% 29.99 in 10.0 mi ENE 11.5 mph 20.7 mph N/A   Overcast
2:30 AM 30.2 °F 18.5 °F 24.8 °F 80% 29.98 in 10.0 mi ENE 17.3 mph 23.0 mph N/A   Overcast
2:51 AM 30.2 °F 19.8 °F 24.8 °F 80% 29.97 in 10.0 mi ENE 13.8 mph 20.7 mph N/A   Overcast
3:11 AM 30.2 °F 20.2 °F 24.8 °F 80% 29.98 in 10.0 mi ENE 12.7 mph 23.0 mph N/A   Overcast
3:30 AM 30.2 °F 20.2 °F 26.6 °F 86% 29.96 in 10.0 mi ENE 12.7 mph 20.7 mph N/A   Overcast
3:51 AM 30.2 °F 18.9 °F 26.6 °F 86% 29.94 in 10.0 mi ENE 16.1 mph 23.0 mph N/A   Overcast
4:10 AM 30.2 °F 19.3 °F 26.6 °F 86% 29.94 in 10.0 mi ENE 15.0 mph 24.2 mph N/A   Overcast
4:30 AM 30.2 °F 19.3 °F 26.6 °F 86% 29.93 in 10.0 mi ENE 15.0 mph 25.3 mph N/A   Overcast
4:51 AM 28.4 °F 17.5 °F 26.6 °F 93% 29.92 in 10.0 mi ENE 13.8 mph 19.6 mph N/A   Overcast
5:10 AM 28.4 °F 16.6 °F 26.6 °F 93% 29.90 in 10.0 mi ENE 16.1 mph 25.3 mph N/A   Overcast
5:30 AM 28.4 °F 17.5 °F 26.6 °F 93% 29.90 in 10.0 mi ENE 13.8 mph 19.6 mph N/A   Overcast
5:51 AM 28.4 °F 16.6 °F 26.6 °F 93% 29.89 in 10.0 mi ENE 16.1 mph 19.6 mph N/A   Overcast
6:10 AM 28.4 °F 17.5 °F 26.6 °F 93% 29.89 in 10.0 mi ENE 13.8 mph 23.0 mph N/A   Overcast
6:30 AM 28.4 °F 17.0 °F 26.6 °F 93% 29.88 in 5.0 mi ENE 15.0 mph 20.7 mph N/A   Overcast
6:51 AM 28.4 °F 17.5 °F 26.6 °F 93% 29.87 in 4.0 mi East 13.8 mph 21.9 mph N/A   Overcast
7:10 AM 28.4 °F 17.5 °F 26.6 °F 93% 29.86 in 4.0 mi East 13.8 mph 21.9 mph N/A   Overcast
7:30 AM 28.4 °F 18.0 °F 26.6 °F 93% 29.85 in 5.0 mi ENE 12.7 mph 19.6 mph N/A   Overcast
7:51 AM 28.4 °F 17.0 °F 28.4 °F 100% 29.84 in 4.0 mi ENE 15.0 mph - N/A   Overcast
8:10 AM 28.4 °F 17.0 °F 28.4 °F 100% 29.84 in 4.0 mi ENE 15.0 mph 21.9 mph N/A   Overcast
8:30 AM 30.2 °F 18.9 °F 28.4 °F 93% 29.82 in 3.0 mi ENE 16.1 mph 20.7 mph N/A   Overcast
8:51 AM 30.2 °F 18.9 °F 28.4 °F 93% 29.81 in 5.0 mi ENE 16.1 mph - N/A   Overcast
9:10 AM 30.2 °F 19.8 °F 28.4 °F 93% 29.81 in 10.0 mi ENE 13.8 mph 17.3 mph N/A   Overcast
9:30 AM 30.2 °F 20.8 °F 28.4 °F 93% 29.80 in 10.0 mi ENE 11.5 mph - N/A   Overcast
9:51 AM 30.2 °F 20.8 °F 30.2 °F 100% 29.78 in 10.0 mi ENE 11.5 mph - N/A   Overcast
10:10 AM 30.2 °F 21.9 °F 30.2 °F 100% 29.77 in 10.0 mi ENE 9.2 mph - N/A   Overcast
10:30 AM 30.2 °F 23.4 °F 30.2 °F 100% 29.78 in 10.0 mi East 6.9 mph - N/A   Overcast
10:51 AM 32.0 °F 24.8 °F 30.2 °F 93% 29.77 in 10.0 mi ENE 8.1 mph - N/A   Overcast
11:10 AM 32.0 °F 24.2 °F 30.2 °F 93% 29.75 in 10.0 mi ENE 9.2 mph - N/A   Overcast
11:30 AM 32.0 °F 24.2 °F 30.2 °F 93% 29.74 in 4.0 mi ENE 9.2 mph - N/A   Overcast
11:51 AM 33.8 °F 27.0 °F 32.0 °F 93% 29.73 in 3.0 mi ENE 8.1 mph - N/A   Overcast
12:10 PM 33.8 °F 27.0 °F 32.0 °F 93% 29.71 in 3.0 mi ENE 8.1 mph - N/A   Overcast
12:30 PM 33.8 °F 26.4 °F 32.0 °F 93% 29.70 in 3.0 mi ENE 9.2 mph - N/A   Overcast
12:51 PM 33.8 °F 27.7 °F 32.0 °F 93% 29.69 in 3.0 mi ENE 6.9 mph - N/A   Overcast
1:10 PM 33.8 °F 26.4 °F 32.0 °F 93% 29.68 in 2.5 mi ENE 9.2 mph - N/A Snow Light Snow
1:30 PM 33.8 °F 26.4 °F 32.0 °F 93% 29.67 in 2.5 mi ENE 9.2 mph - N/A   Overcast
1:51 PM 33.8 °F 25.8 °F 32.0 °F 93% 29.66 in 3.0 mi ENE 10.4 mph - N/A   Overcast
2:10 PM 33.8 °F 25.8 °F 32.0 °F 93% 29.65 in 3.0 mi NE 10.4 mph - N/A   Drizzle
2:30 PM 33.8 °F 25.8 °F 32.0 °F 93% 29.63 in 2.5 mi ENE 10.4 mph - N/A   Overcast
2:51 PM 33.8 °F 26.4 °F 32.0 °F 93% 29.62 in 2.0 mi ENE 9.2 mph - 0.01 in   Overcast
3:10 PM 33.8 °F 25.8 °F 33.8 °F 100% 29.62 in 2.0 mi ENE 10.4 mph - N/A Snow Light Snow
3:31 PM 33.8 °F 25.8 °F 33.8 °F 100% 29.62 in 2.0 mi ENE 10.4 mph - N/A Snow Light Snow
3:50 PM 33.8 °F 25.3 °F 33.8 °F 100% 29.61 in 2.0 mi NE 11.5 mph - N/A   Overcast
4:10 PM 33.8 °F 25.3 °F 33.8 °F 100% 29.62 in 3.0 mi ENE 11.5 mph - N/A Snow Light Snow
4:31 PM 33.8 °F 26.4 °F 33.8 °F 100% 29.61 in 3.0 mi ENE 9.2 mph - N/A Snow Light Snow
4:50 PM 33.8 °F 25.8 °F 33.8 °F 100% 29.60 in 3.0 mi ENE 10.4 mph 16.1 mph N/A   Overcast
5:10 PM 33.8 °F 25.3 °F 33.8 °F 100% 29.59 in 3.0 mi ENE 11.5 mph - N/A Snow Light Snow
5:31 PM 33.8 °F 25.8 °F 33.8 °F 100% 29.59 in 4.0 mi ENE 10.4 mph - N/A   Overcast
5:50 PM 33.8 °F 25.3 °F 33.8 °F 100% 29.57 in 3.0 mi NE 11.5 mph - N/A Snow Light Snow
6:10 PM 33.8 °F 26.4 °F 33.8 °F 100% 29.57 in 4.0 mi ENE 9.2 mph - N/A   Overcast
6:31 PM 33.8 °F 26.4 °F 33.8 °F 100% 29.57 in 2.5 mi ENE 9.2 mph - N/A   Overcast
6:50 PM 33.8 °F 26.4 °F 33.8 °F 100% 29.56 in 4.0 mi ENE 9.2 mph - N/A Snow Light Snow
7:10 PM 33.8 °F 27.0 °F 33.8 °F 100% 29.56 in 5.0 mi ENE 8.1 mph - N/A   Overcast
7:31 PM 33.8 °F 26.4 °F 33.8 °F 100% 29.54 in 4.0 mi ENE 9.2 mph - N/A   Overcast
7:50 PM 33.8 °F 26.4 °F 33.8 °F 100% 29.53 in 2.5 mi ENE 9.2 mph - N/A   Overcast
8:10 PM 33.8 °F 26.4 °F 33.8 °F 100% 29.52 in 3.0 mi ENE 9.2 mph - N/A   Overcast
8:31 PM 35.6 °F 29.9 °F 33.8 °F 93% 29.50 in 3.0 mi NE 6.9 mph - N/A   Overcast
8:50 PM 35.6 °F 28.6 °F 33.8 °F 93% 29.49 in 4.0 mi NE 9.2 mph - N/A   Overcast
9:10 PM 35.6 °F 28.6 °F 33.8 °F 93% 29.48 in 3.0 mi ENE 9.2 mph - N/A   Overcast
9:31 PM 35.6 °F 28.0 °F 33.8 °F 93% 29.46 in 2.5 mi ENE 10.4 mph - N/A   Overcast
9:50 PM 35.6 °F 28.6 °F 33.8 °F 93% 29.45 in 2.5 mi ENE 9.2 mph - N/A   Overcast
10:10 PM 35.6 °F 29.2 °F 35.6 °F 100% 29.45 in 2.5 mi ENE 8.1 mph - N/A   Overcast
10:50 PM 35.6 °F 29.9 °F 35.6 °F 100% 29.43 in 2.5 mi ENE 6.9 mph - N/A   Overcast
11:10 PM 35.6 °F - 35.6 °F 100% 29.43 in 1.8 mi Calm Calm - N/A   Overcast
11:31 PM 35.6 °F 32.8 °F 35.6 °F 100% 29.42 in 1.2 mi North 3.5 mph - N/A   Overcast
11:50 PM 35.6 °F 31.7 °F 35.6 °F 100% 29.41 in 1.2 mi NNE 4.6 mph - N/A   Overcast